Time;durP1;ratioP1;P1;durP2;ratioP2;P2;SDS_P1;SDS_P2;PMS_P1;PMS_P2;Temp;Humidity;BMP_temperature;BMP_pressure;BME280_temperature;BME280_humidity;BME280_pressure;Samples;Min_cycle;Max_cycle;Signal;HPM_P1;HPM_P2
2023/08/15 00:00:09;;;;;;;6.15;4.40;;;;;;;;;;5060759;28;20123;-62
2023/08/15 00:02:39;;;;;;;7.93;4.35;;;;;;;;;;5063344;28;20056;-61
2023/08/15 00:05:08;;;;;;;6.28;3.95;;;;;;;;;;5064250;28;20048;-61
2023/08/15 00:07:36;;;;;;;6.88;4.47;;;;;;;;;;5063666;28;20048;-61
2023/08/15 00:10:05;;;;;;;6.97;4.60;;;;;;;;;;5065731;28;20891;-61
2023/08/15 00:12:33;;;;;;;7.88;4.45;;;;;;;;;;5065282;28;20047;-65
2023/08/15 00:15:02;;;;;;;6.57;3.95;;;;;;;;;;5065088;28;20110;-62
2023/08/15 00:17:30;;;;;;;7.38;4.57;;;;;;;;;;5068481;28;20044;-61
2023/08/15 00:20:00;;;;;;;8.32;4.22;;;;;;;;;;5065770;28;20036;-61
2023/08/15 00:22:28;;;;;;;5.57;4.38;;;;;;;;;;5066226;28;20055;-61
2023/08/15 00:24:57;;;;;;;8.25;4.18;;;;;;;;;;5053097;28;20069;-62
2023/08/15 00:27:25;;;;;;;7.85;4.45;;;;;;;;;;5039506;28;20080;-62
2023/08/15 00:29:53;;;;;;;5.85;4.25;;;;;;;;;;5043795;28;20153;-62
2023/08/15 00:32:22;;;;;;;5.78;3.85;;;;;;;;;;5039733;28;20080;-62
2023/08/15 00:34:50;;;;;;;6.00;4.13;;;;;;;;;;5046245;28;20037;-62
2023/08/15 00:37:20;;;;;;;8.70;4.10;;;;;;;;;;5047138;28;20114;-62
2023/08/15 00:39:48;;;;;;;8.45;4.38;;;;;;;;;;5046815;28;20056;-62
2023/08/15 00:42:18;;;;;;;6.80;4.38;;;;;;;;;;5048879;28;20152;-65
2023/08/15 00:44:46;;;;;;;8.15;4.78;;;;;;;;;;5054511;28;20068;-62
2023/08/15 00:47:15;;;;;;;5.85;3.80;;;;;;;;;;5068263;28;20430;-60
2023/08/15 00:49:44;;;;;;;7.63;4.13;;;;;;;;;;5065373;28;20067;-61
2023/08/15 00:52:13;;;;;;;5.80;4.22;;;;;;;;;;5066412;28;20068;-62
2023/08/15 00:54:44;;;;;;;6.00;3.92;;;;;;;;;;5065177;28;20112;-61
2023/08/15 00:57:13;;;;;;;11.02;4.03;;;;;;;;;;5068802;28;20055;-61
2023/08/15 00:59:43;;;;;;;15.88;4.75;;;;;;;;;;5067047;28;20040;-61
2023/08/15 01:02:12;;;;;;;6.50;4.03;;;;;;;;;;5064874;28;20055;-62
2023/08/15 01:04:41;;;;;;;7.13;3.97;;;;;;;;;;5051311;22;20050;-63
2023/08/15 01:07:10;;;;;;;8.40;3.88;;;;;;;;;;5020078;28;20130;-62
2023/08/15 01:09:39;;;;;;;6.68;4.35;;;;;;;;;;5017430;28;20037;-61
2023/08/15 01:12:13;;;;;;;7.10;3.92;;;;;;;;;;5023254;28;20041;-61
2023/08/15 01:14:43;;;;;;;8.07;4.13;;;;;;;;;;5024732;28;20431;-62
2023/08/15 01:17:14;;;;;;;6.20;4.38;;;;;;;;;;5032528;28;20132;-61
2023/08/15 01:19:44;;;;;;;6.28;3.97;;;;;;;;;;5025329;28;20146;-63
2023/08/15 01:22:16;;;;;;;7.35;4.35;;;;;;;;;;5028882;28;20077;-61
2023/08/15 01:24:46;;;;;;;7.07;4.00;;;;;;;;;;5022614;28;20049;-64
2023/08/15 01:27:15;;;;;;;9.48;4.40;;;;;;;;;;5028498;28;20483;-62
2023/08/15 01:29:43;;;;;;;9.18;4.65;;;;;;;;;;5031929;28;20537;-62
2023/08/15 01:32:16;;;;;;;6.47;4.00;;;;;;;;;;5024432;28;20300;-60
2023/08/15 01:34:47;;;;;;;7.85;4.20;;;;;;;;;;5026705;28;20141;-62
2023/08/15 01:37:18;;;;;;;6.63;3.55;;;;;;;;;;5026681;28;20099;-63
2023/08/15 01:39:49;;;;;;;8.18;4.00;;;;;;;;;;5027159;28;20051;-62
2023/08/15 01:42:18;;;;;;;5.10;4.07;;;;;;;;;;5025522;28;20057;-61
2023/08/15 01:44:47;;;;;;;6.53;4.00;;;;;;;;;;5025096;28;20045;-62
2023/08/15 01:47:15;;;;;;;6.85;3.45;;;;;;;;;;5024211;28;20073;-60
2023/08/15 01:49:44;;;;;;;8.18;4.10;;;;;;;;;;5023046;28;20041;-62
2023/08/15 01:52:12;;;;;;;5.18;3.70;;;;;;;;;;5021505;28;21793;-62
2023/08/15 01:54:41;;;;;;;7.75;4.00;;;;;;;;;;5021455;28;20053;-62
2023/08/15 01:57:10;;;;;;;6.75;4.18;;;;;;;;;;5023812;28;20486;-62
2023/08/15 01:59:39;;;;;;;6.70;4.10;;;;;;;;;;5023581;28;20194;-61
2023/08/15 02:02:07;;;;;;;6.38;4.00;;;;;;;;;;5023752;28;20049;-61
2023/08/15 02:04:36;;;;;;;6.90;3.90;;;;;;;;;;5023809;28;20050;-62
2023/08/15 02:07:04;;;;;;;6.03;3.45;;;;;;;;;;5023114;28;22070;-65
2023/08/15 02:09:32;;;;;;;6.97;3.83;;;;;;;;;;5023178;28;20077;-62
2023/08/15 02:12:01;;;;;;;5.13;3.72;;;;;;;;;;5024183;28;20100;-61
2023/08/15 02:14:30;;;;;;;6.15;3.97;;;;;;;;;;5019758;28;20107;-61
2023/08/15 02:16:59;;;;;;;6.53;4.15;;;;;;;;;;5023049;28;20638;-61
2023/08/15 02:19:27;;;;;;;4.93;3.55;;;;;;;;;;5024144;28;20045;-63
2023/08/15 02:21:56;;;;;;;9.30;4.38;;;;;;;;;;5024455;28;20059;-62
2023/08/15 02:24:24;;;;;;;6.95;4.00;;;;;;;;;;5023395;28;20061;-62
2023/08/15 02:26:53;;;;;;;5.75;3.80;;;;;;;;;;5022522;28;20041;-61
2023/08/15 02:29:21;;;;;;;5.90;3.97;;;;;;;;;;5021680;28;20053;-61
2023/08/15 02:31:51;;;;;;;4.63;3.65;;;;;;;;;;5023980;28;20103;-62
2023/08/15 02:34:19;;;;;;;6.72;4.22;;;;;;;;;;5022171;28;20166;-61
2023/08/15 02:36:48;;;;;;;7.88;4.13;;;;;;;;;;5024686;28;20050;-63
2023/08/15 02:39:16;;;;;;;7.07;3.90;;;;;;;;;;5023102;28;20631;-61
2023/08/15 02:41:45;;;;;;;7.40;3.72;;;;;;;;;;5022014;28;20038;-65
2023/08/15 02:44:15;;;;;;;6.53;4.03;;;;;;;;;;5021168;28;20717;-61
2023/08/15 02:46:43;;;;;;;9.32;4.03;;;;;;;;;;5025138;28;20037;-61
2023/08/15 02:49:13;;;;;;;6.10;3.70;;;;;;;;;;5023973;28;20037;-64
2023/08/15 02:51:41;;;;;;;5.93;4.05;;;;;;;;;;5021631;28;20132;-63
2023/08/15 02:54:10;;;;;;;5.30;3.83;;;;;;;;;;5021334;28;20053;-61
2023/08/15 02:56:39;;;;;;;5.25;3.83;;;;;;;;;;5023007;28;20096;-61
2023/08/15 02:59:07;;;;;;;6.50;3.58;;;;;;;;;;5022850;28;20137;-61
2023/08/15 03:01:36;;;;;;;5.10;3.72;;;;;;;;;;5022277;28;20069;-62
2023/08/15 03:04:04;;;;;;;7.35;3.75;;;;;;;;;;5020941;28;20129;-63
2023/08/15 03:06:34;;;;;;;4.85;3.33;;;;;;;;;;5024102;28;20072;-62
2023/08/15 03:09:02;;;;;;;6.03;3.88;;;;;;;;;;5020680;28;20470;-61
2023/08/15 03:11:31;;;;;;;5.50;3.53;;;;;;;;;;5024787;28;20045;-61
2023/08/15 03:13:59;;;;;;;7.90;4.03;;;;;;;;;;5022188;28;20114;-62
2023/08/15 03:16:28;;;;;;;7.18;3.70;;;;;;;;;;5022260;28;20636;-62
2023/08/15 03:18:57;;;;;;;4.43;3.33;;;;;;;;;;5023376;28;20164;-63
2023/08/15 03:21:25;;;;;;;3.65;2.97;;;;;;;;;;5022674;28;20103;-62
2023/08/15 03:23:55;;;;;;;6.80;3.50;;;;;;;;;;5018150;28;20145;-62
2023/08/15 03:26:25;;;;;;;4.43;3.72;;;;;;;;;;5023913;28;20074;-61
2023/08/15 03:28:56;;;;;;;4.57;3.45;;;;;;;;;;5022472;28;20136;-62
2023/08/15 03:31:24;;;;;;;5.80;3.50;;;;;;;;;;5024925;28;20032;-63
2023/08/15 03:33:53;;;;;;;4.65;3.55;;;;;;;;;;5022845;28;20099;-62
2023/08/15 03:36:21;;;;;;;6.28;3.40;;;;;;;;;;5024573;28;20053;-61
2023/08/15 03:38:50;;;;;;;6.13;3.60;;;;;;;;;;5024297;28;20414;-62
2023/08/15 03:41:19;;;;;;;6.72;3.67;;;;;;;;;;5024087;28;20338;-61
2023/08/15 03:43:48;;;;;;;5.80;3.55;;;;;;;;;;5019642;28;20232;-62
2023/08/15 03:46:16;;;;;;;4.60;3.42;;;;;;;;;;5023137;28;20481;-61
2023/08/15 03:48:45;;;;;;;5.50;3.40;;;;;;;;;;5022584;28;20034;-61
2023/08/15 03:51:13;;;;;;;4.22;3.20;;;;;;;;;;5028975;28;20128;-61
2023/08/15 03:53:59;;;;;;;5.60;3.10;;;;;;;;;;5028191;28;20453;-60
2023/08/15 03:56:29;;;;;;;4.78;3.63;;;;;;;;;;5024528;28;20437;-61
2023/08/15 03:58:57;;;;;;;3.88;3.33;;;;;;;;;;5026619;28;20084;-63
2023/08/15 04:01:26;;;;;;;4.43;3.42;;;;;;;;;;5025500;28;20045;-61
2023/08/15 04:03:55;;;;;;;4.45;3.38;;;;;;;;;;5028496;28;20041;-61
2023/08/15 04:06:24;;;;;;;4.95;3.50;;;;;;;;;;5027731;28;20180;-60
2023/08/15 04:08:52;;;;;;;5.90;3.20;;;;;;;;;;5029166;28;20049;-61
2023/08/15 04:11:21;;;;;;;4.72;3.33;;;;;;;;;;5026435;28;20410;-60
2023/08/15 04:13:50;;;;;;;5.13;3.78;;;;;;;;;;5031498;28;20487;-61
2023/08/15 04:16:19;;;;;;;8.63;3.40;;;;;;;;;;5025963;28;20053;-62
2023/08/15 04:18:47;;;;;;;3.90;3.15;;;;;;;;;;5027746;28;20497;-62
2023/08/15 04:21:16;;;;;;;6.05;4.15;;;;;;;;;;5025374;28;20033;-63
2023/08/15 04:23:44;;;;;;;4.43;3.15;;;;;;;;;;5027471;28;20481;-64
2023/08/15 04:26:13;;;;;;;6.68;3.50;;;;;;;;;;5027023;28;20073;-60
2023/08/15 04:28:41;;;;;;;5.13;3.33;;;;;;;;;;5024541;28;20088;-62
2023/08/15 04:31:11;;;;;;;6.57;3.55;;;;;;;;;;5024581;28;20116;-62
2023/08/15 04:33:39;;;;;;;4.93;3.25;;;;;;;;;;5024105;28;20082;-65
2023/08/15 04:36:07;;;;;;;5.07;3.50;;;;;;;;;;5026654;28;20128;-62
2023/08/15 04:38:36;;;;;;;3.78;2.70;;;;;;;;;;5028669;28;20044;-61
2023/08/15 04:41:06;;;;;;;4.80;3.40;;;;;;;;;;5024091;28;20137;-62
2023/08/15 04:43:34;;;;;;;5.20;2.80;;;;;;;;;;5026749;28;20589;-61
2023/08/15 04:46:03;;;;;;;5.70;3.45;;;;;;;;;;5027352;28;20095;-60
2023/08/15 04:48:33;;;;;;;4.68;3.35;;;;;;;;;;5029733;28;20045;-62
2023/08/15 04:51:01;;;;;;;3.92;2.97;;;;;;;;;;5027799;28;20087;-62
2023/08/15 04:53:29;;;;;;;4.22;3.42;;;;;;;;;;5025950;28;20048;-61
2023/08/15 04:55:58;;;;;;;6.20;3.30;;;;;;;;;;5025103;28;20072;-61
2023/08/15 04:58:26;;;;;;;7.20;3.28;;;;;;;;;;5028002;28;20081;-64
2023/08/15 05:00:54;;;;;;;6.85;3.22;;;;;;;;;;5028245;28;20129;-61
2023/08/15 05:03:23;;;;;;;4.35;3.33;;;;;;;;;;5027139;28;20140;-61
2023/08/15 05:05:52;;;;;;;5.80;3.20;;;;;;;;;;5026845;28;20128;-60
2023/08/15 05:08:21;;;;;;;5.07;3.70;;;;;;;;;;5026597;28;20105;-62
2023/08/15 05:10:49;;;;;;;4.50;3.30;;;;;;;;;;5023462;28;20065;-61
2023/08/15 05:13:18;;;;;;;5.05;3.13;;;;;;;;;;5028103;28;20738;-63
2023/08/15 05:15:46;;;;;;;5.05;3.45;;;;;;;;;;5025292;28;20071;-61
2023/08/15 05:18:15;;;;;;;4.22;3.10;;;;;;;;;;5027316;28;20415;-61
2023/08/15 05:20:44;;;;;;;4.28;3.28;;;;;;;;;;5024900;28;20037;-60
2023/08/15 05:23:14;;;;;;;5.65;3.20;;;;;;;;;;5029366;28;20072;-62
2023/08/15 05:25:43;;;;;;;7.20;3.15;;;;;;;;;;5030007;28;20446;-61
2023/08/15 05:28:12;;;;;;;5.25;3.28;;;;;;;;;;5025835;28;20046;-60
2023/08/15 05:30:40;;;;;;;4.72;3.08;;;;;;;;;;5024633;28;20494;-60
2023/08/15 05:33:09;;;;;;;4.68;3.42;;;;;;;;;;5022545;28;20166;-61
2023/08/15 05:35:37;;;;;;;4.88;3.45;;;;;;;;;;5026326;28;20054;-60
2023/08/15 05:38:06;;;;;;;4.63;3.13;;;;;;;;;;5026388;28;20118;-61
2023/08/15 05:40:35;;;;;;;5.35;3.45;;;;;;;;;;5017417;28;20065;-64
2023/08/15 05:43:04;;;;;;;4.13;3.00;;;;;;;;;;5025042;28;20517;-61
2023/08/15 05:45:32;;;;;;;6.95;3.38;;;;;;;;;;5026917;28;20160;-62
2023/08/15 05:48:01;;;;;;;4.18;3.22;;;;;;;;;;5027914;28;20048;-62
2023/08/15 05:50:29;;;;;;;7.22;4.22;;;;;;;;;;5026074;28;20053;-61
2023/08/15 05:52:57;;;;;;;9.63;3.58;;;;;;;;;;5021568;28;20041;-60
2023/08/15 05:55:26;;;;;;;5.13;3.30;;;;;;;;;;5022438;28;20532;-64
2023/08/15 05:57:55;;;;;;;4.78;2.88;;;;;;;;;;5022493;28;20049;-65
2023/08/15 06:00:25;;;;;;;5.47;2.72;;;;;;;;;;5019484;28;20056;-62
2023/08/15 06:02:53;;;;;;;5.03;3.40;;;;;;;;;;5022758;28;20077;-63
2023/08/15 06:05:22;;;;;;;5.07;3.33;;;;;;;;;;5017307;28;20169;-62
2023/08/15 06:07:51;;;;;;;3.70;2.80;;;;;;;;;;5020277;28;20071;-65
2023/08/15 06:10:19;;;;;;;4.20;3.08;;;;;;;;;;5017865;28;20134;-62
2023/08/15 06:12:48;;;;;;;5.50;3.15;;;;;;;;;;5021184;28;20076;-62
2023/08/15 06:15:18;;;;;;;4.00;2.90;;;;;;;;;;5016328;28;20133;-64
2023/08/15 06:17:46;;;;;;;5.63;3.00;;;;;;;;;;5022208;28;20046;-61
2023/08/15 06:20:15;;;;;;;6.15;2.97;;;;;;;;;;5023115;28;20176;-61
2023/08/15 06:22:43;;;;;;;4.85;3.40;;;;;;;;;;5020774;28;20099;-63
2023/08/15 06:25:11;;;;;;;3.72;2.70;;;;;;;;;;5018104;28;20667;-60
2023/08/15 06:27:40;;;;;;;5.97;3.08;;;;;;;;;;5018097;28;20139;-63
2023/08/15 06:30:08;;;;;;;3.40;2.75;;;;;;;;;;5017228;28;20060;-61
2023/08/15 06:32:38;;;;;;;5.85;2.88;;;;;;;;;;5021704;28;20127;-62
2023/08/15 06:35:09;;;;;;;5.32;3.17;;;;;;;;;;5022919;28;20526;-61
2023/08/15 06:37:37;;;;;;;3.95;2.90;;;;;;;;;;5011529;28;20045;-62
2023/08/15 06:40:08;;;;;;;3.88;3.22;;;;;;;;;;5010088;28;20057;-63
2023/08/15 06:42:36;;;;;;;4.18;2.78;;;;;;;;;;5019097;28;20056;-63
2023/08/15 06:45:08;;;;;;;3.70;2.85;;;;;;;;;;5020807;28;20049;-62
2023/08/15 06:47:38;;;;;;;4.20;2.78;;;;;;;;;;5020442;28;20045;-61
2023/08/15 06:50:08;;;;;;;5.78;3.17;;;;;;;;;;5020356;28;20049;-62
2023/08/15 06:52:37;;;;;;;3.55;3.15;;;;;;;;;;5015173;28;20288;-61
2023/08/15 06:55:06;;;;;;;5.00;2.92;;;;;;;;;;5013467;28;20391;-62
2023/08/15 06:57:35;;;;;;;4.18;2.72;;;;;;;;;;5019555;28;20044;-61
2023/08/15 07:00:06;;;;;;;3.58;2.67;;;;;;;;;;5021232;28;20140;-64
2023/08/15 07:02:35;;;;;;;5.28;2.83;;;;;;;;;;5027418;28;20127;-61
2023/08/15 07:05:05;;;;;;;3.35;2.92;;;;;;;;;;5022913;28;20068;-62
2023/08/15 07:07:33;;;;;;;3.67;2.70;;;;;;;;;;5020997;28;20100;-61
2023/08/15 07:10:01;;;;;;;4.28;2.80;;;;;;;;;;5017207;28;20045;-61
2023/08/15 07:12:30;;;;;;;5.50;2.80;;;;;;;;;;5019344;28;20143;-65
2023/08/15 07:14:58;;;;;;;3.55;3.08;;;;;;;;;;5019285;28;20056;-62
2023/08/15 07:17:27;;;;;;;3.53;2.65;;;;;;;;;;5018461;28;20141;-63
2023/08/15 07:19:55;;;;;;;5.50;2.80;;;;;;;;;;5014241;28;20038;-64
2023/08/15 07:22:25;;;;;;;5.25;3.10;;;;;;;;;;5017516;28;20082;-61
2023/08/15 07:24:53;;;;;;;4.57;2.95;;;;;;;;;;5019499;28;20065;-63
2023/08/15 07:27:22;;;;;;;4.35;2.72;;;;;;;;;;5022000;28;20953;-61
2023/08/15 07:29:50;;;;;;;6.57;2.97;;;;;;;;;;5028199;28;20076;-61
2023/08/15 07:32:18;;;;;;;4.85;3.15;;;;;;;;;;5023192;28;20123;-62
2023/08/15 07:34:48;;;;;;;5.72;3.08;;;;;;;;;;5022770;28;20474;-62
2023/08/15 07:37:17;;;;;;;4.90;2.95;;;;;;;;;;5018282;28;20130;-61
2023/08/15 07:39:47;;;;;;;7.47;3.33;;;;;;;;;;5023719;28;20440;-61
2023/08/15 07:42:15;;;;;;;4.20;3.38;;;;;;;;;;5019861;28;20119;-61
2023/08/15 07:44:43;;;;;;;4.60;3.33;;;;;;;;;;5020662;28;20046;-61
2023/08/15 07:47:12;;;;;;;4.15;3.50;;;;;;;;;;5017105;28;20556;-64
2023/08/15 07:49:40;;;;;;;4.90;3.20;;;;;;;;;;5021216;28;20049;-61
2023/08/15 07:52:09;;;;;;;5.63;4.07;;;;;;;;;;5022271;28;20045;-61
2023/08/15 07:54:37;;;;;;;6.53;3.55;;;;;;;;;;5023645;28;20084;-63
2023/08/15 07:57:07;;;;;;;7.15;3.78;;;;;;;;;;5023421;28;20490;-63
2023/08/15 07:59:35;;;;;;;4.65;3.58;;;;;;;;;;5022676;28;20061;-65
2023/08/15 08:02:04;;;;;;;5.85;4.50;;;;;;;;;;5024617;28;20103;-61
2023/08/15 08:04:32;;;;;;;4.72;3.83;;;;;;;;;;5019623;28;20881;-61
2023/08/15 08:07:00;;;;;;;7.10;3.97;;;;;;;;;;5020323;28;20103;-61
2023/08/15 08:09:29;;;;;;;5.75;3.90;;;;;;;;;;5017142;28;20510;-64
2023/08/15 08:11:57;;;;;;;4.93;3.70;;;;;;;;;;5022255;28;20446;-62
2023/08/15 08:14:27;;;;;;;7.60;4.55;;;;;;;;;;5020487;28;20057;-61
2023/08/15 08:16:55;;;;;;;6.70;4.20;;;;;;;;;;5019679;28;20049;-62
2023/08/15 08:19:24;;;;;;;5.63;3.67;;;;;;;;;;5016956;28;20637;-63
2023/08/15 08:21:52;;;;;;;13.18;4.13;;;;;;;;;;5017127;28;20057;-62
2023/08/15 08:24:21;;;;;;;6.05;3.67;;;;;;;;;;5016306;28;20570;-61
2023/08/15 08:26:49;;;;;;;4.30;3.83;;;;;;;;;;5024570;28;20119;-60
2023/08/15 08:29:17;;;;;;;6.40;4.00;;;;;;;;;;5014744;28;20510;-63
2023/08/15 08:31:47;;;;;;;5.95;4.38;;;;;;;;;;5020885;28;20080;-61
2023/08/15 08:34:16;;;;;;;6.95;4.10;;;;;;;;;;5019971;28;20136;-65
2023/08/15 08:36:45;;;;;;;4.68;3.45;;;;;;;;;;5020871;28;20073;-61
2023/08/15 08:39:13;;;;;;;5.38;4.00;;;;;;;;;;5016166;28;20077;-62
2023/08/15 08:41:57;;;;;;;8.27;4.10;;;;;;;;;;5024061;28;20055;-62
2023/08/15 08:44:26;;;;;;;10.07;4.47;;;;;;;;;;5020142;28;20072;-60
2023/08/15 08:46:56;;;;;;;6.38;4.25;;;;;;;;;;5023053;28;20164;-60
2023/08/15 08:49:25;;;;;;;6.97;4.18;;;;;;;;;;5021450;28;20095;-61
2023/08/15 08:51:54;;;;;;;12.00;4.38;;;;;;;;;;5022368;28;20681;-62
2023/08/15 08:54:22;;;;;;;5.15;3.80;;;;;;;;;;5019162;28;20084;-62
2023/08/15 08:57:11;;;;;;;6.90;3.83;;;;;;;;;;5021204;28;20041;-62
2023/08/15 08:59:41;;;;;;;4.55;3.60;;;;;;;;;;5022474;28;20049;-61
2023/08/15 09:02:12;;;;;;;3.85;3.40;;;;;;;;;;5024595;28;20556;-61
2023/08/15 09:04:40;;;;;;;4.40;3.53;;;;;;;;;;5022369;28;20044;-62
2023/08/15 09:07:09;;;;;;;8.32;4.05;;;;;;;;;;5016743;28;20438;-60
2023/08/15 09:09:37;;;;;;;10.02;4.18;;;;;;;;;;5018973;28;20095;-61
2023/08/15 09:12:07;;;;;;;6.05;4.05;;;;;;;;;;5019648;28;20092;-61
2023/08/15 09:14:40;;;;;;;4.43;3.80;;;;;;;;;;5021639;28;20259;-65
2023/08/15 09:17:11;;;;;;;5.00;4.03;;;;;;;;;;5021323;28;20069;-63
2023/08/15 09:19:41;;;;;;;4.82;3.40;;;;;;;;;;5020706;28;20096;-62
2023/08/15 09:22:21;;;;;;;5.93;3.80;;;;;;;;;;5020280;28;20389;-60
2023/08/15 09:24:50;;;;;;;5.22;3.90;;;;;;;;;;5021703;28;20042;-60
2023/08/15 09:27:19;;;;;;;5.72;4.35;;;;;;;;;;5020284;28;20052;-65
2023/08/15 09:29:47;;;;;;;5.45;4.00;;;;;;;;;;5022419;28;20057;-62
2023/08/15 09:32:16;;;;;;;5.20;4.20;;;;;;;;;;5018341;28;20065;-62
2023/08/15 09:34:46;;;;;;;4.55;3.63;;;;;;;;;;5022911;28;20056;-61
2023/08/15 09:37:14;;;;;;;4.55;3.65;;;;;;;;;;5018340;28;20131;-62
2023/08/15 09:39:42;;;;;;;7.53;4.30;;;;;;;;;;5019851;28;20556;-63
2023/08/15 09:42:11;;;;;;;7.30;4.15;;;;;;;;;;5020413;28;20049;-60
2023/08/15 09:44:40;;;;;;;5.07;3.55;;;;;;;;;;5018426;28;20045;-64
2023/08/15 09:47:09;;;;;;;5.97;4.43;;;;;;;;;;5019869;28;20171;-60
2023/08/15 09:49:38;;;;;;;4.45;4.05;;;;;;;;;;5015166;28;20054;-60
2023/08/15 09:52:09;;;;;;;4.72;3.60;;;;;;;;;;5021376;28;20049;-60
2023/08/15 09:54:37;;;;;;;7.35;4.68;;;;;;;;;;5014715;28;20069;-63
2023/08/15 09:57:06;;;;;;;6.15;4.80;;;;;;;;;;5018702;28;21165;-63
2023/08/15 09:59:36;;;;;;;7.03;4.25;;;;;;;;;;5019654;28;20107;-61
2023/08/15 10:02:05;;;;;;;6.30;4.53;;;;;;;;;;5018092;28;21209;-61
2023/08/15 10:04:35;;;;;;;4.95;4.20;;;;;;;;;;5018327;28;20107;-62
2023/08/15 10:07:03;;;;;;;7.55;4.78;;;;;;;;;;5017705;28;20072;-63
2023/08/15 10:09:33;;;;;;;5.38;4.13;;;;;;;;;;5018857;28;20053;-64
2023/08/15 10:12:02;;;;;;;5.80;4.53;;;;;;;;;;5014897;28;20045;-62
2023/08/15 10:14:31;;;;;;;6.15;4.68;;;;;;;;;;5015504;28;20053;-60
2023/08/15 10:16:59;;;;;;;7.32;4.45;;;;;;;;;;5015133;28;20475;-63
2023/08/15 10:19:31;;;;;;;5.85;4.43;;;;;;;;;;5013661;28;20045;-60
2023/08/15 10:21:59;;;;;;;5.07;4.18;;;;;;;;;;5015004;28;20812;-63
2023/08/15 10:24:27;;;;;;;4.95;4.07;;;;;;;;;;5020731;28;20054;-59
2023/08/15 10:26:59;;;;;;;6.72;4.60;;;;;;;;;;5022158;28;20148;-60
2023/08/15 10:29:29;;;;;;;6.40;4.47;;;;;;;;;;5024060;28;20100;-59
2023/08/15 10:32:00;;;;;;;5.05;4.47;;;;;;;;;;5021504;28;20513;-60
2023/08/15 10:34:33;;;;;;;5.80;4.45;;;;;;;;;;5021763;28;20057;-60
2023/08/15 10:37:16;;;;;;;5.90;4.75;;;;;;;;;;5020474;28;20124;-60
2023/08/15 10:39:44;;;;;;;5.30;4.35;;;;;;;;;;5024105;28;20080;-61
2023/08/15 10:42:14;;;;;;;6.30;4.85;;;;;;;;;;5022969;28;20079;-61
2023/08/15 10:44:59;;;;;;;7.53;4.63;;;;;;;;;;5025922;28;20126;-63
2023/08/15 10:47:27;;;;;;;;;;;;;;;;;;5019765;28;20049;-61
2023/08/15 10:49:55;;;;;;;5.88;4.25;;;;;;;;;;5023386;28;19928;-60
2023/08/15 10:52:24;;;;;;;6.38;4.20;;;;;;;;;;5024144;28;20134;-59
2023/08/15 10:54:53;;;;;;;8.10;4.70;;;;;;;;;;5021029;28;20057;-61
2023/08/15 10:57:23;;;;;;;8.73;4.90;;;;;;;;;;5022978;28;20049;-59
2023/08/15 10:59:54;;;;;;;5.30;3.80;;;;;;;;;;5021800;28;20049;-59
2023/08/15 11:02:23;;;;;;;5.95;3.78;;;;;;;;;;5021775;28;20072;-64
2023/08/15 11:04:52;;;;;;;7.00;4.38;;;;;;;;;;5021162;28;20052;-63
2023/08/15 11:07:25;;;;;;;4.50;3.92;;;;;;;;;;5021804;28;20045;-63
2023/08/15 11:09:55;;;;;;;6.03;4.10;;;;;;;;;;5020545;28;20606;-60
2023/08/15 11:12:25;;;;;;;6.82;4.00;;;;;;;;;;5023076;28;20618;-61
2023/08/15 11:14:53;;;;;;;5.22;4.13;;;;;;;;;;5022599;28;20120;-60
2023/08/15 11:17:21;;;;;;;5.88;4.13;;;;;;;;;;5020959;28;20069;-60
2023/08/15 11:19:50;;;;;;;6.72;4.18;;;;;;;;;;5028187;28;20056;-61
2023/08/15 11:22:19;;;;;;;5.15;4.25;;;;;;;;;;5024531;28;20081;-61
2023/08/15 11:24:51;;;;;;;5.88;3.95;;;;;;;;;;5020699;28;20115;-64
2023/08/15 11:27:19;;;;;;;6.03;4.95;;;;;;;;;;5021855;28;20049;-61
2023/08/15 11:29:58;;;;;;;5.20;4.22;;;;;;;;;;5022181;28;20050;-60
2023/08/15 11:32:27;;;;;;;4.97;4.18;;;;;;;;;;5024740;28;20103;-61
2023/08/15 11:34:55;;;;;;;7.35;4.30;;;;;;;;;;5020038;28;20056;-64
2023/08/15 11:37:24;;;;;;;7.47;4.70;;;;;;;;;;5023680;28;20049;-60
2023/08/15 11:39:53;;;;;;;5.43;4.47;;;;;;;;;;5022106;28;20053;-61
2023/08/15 11:42:21;;;;;;;5.85;4.15;;;;;;;;;;5022119;28;20148;-60
2023/08/15 11:45:02;;;;;;;4.90;3.85;;;;;;;;;;5021332;28;20391;-64
2023/08/15 11:47:32;;;;;;;7.68;4.32;;;;;;;;;;5018827;28;20089;-61
2023/08/15 11:50:08;;;;;;;5.57;4.22;;;;;;;;;;5019094;28;20053;-64
2023/08/15 11:52:42;;;;;;;8.32;4.32;;;;;;;;;;5020930;28;20041;-63
2023/08/15 11:55:11;;;;;;;6.40;4.13;;;;;;;;;;5021738;28;20103;-65
2023/08/15 11:57:39;;;;;;;7.72;4.28;;;;;;;;;;5019166;28;20111;-65
2023/08/15 12:00:11;;;;;;;5.43;3.53;;;;;;;;;;5019969;28;20251;-59
2023/08/15 12:02:43;;;;;;;5.97;3.85;;;;;;;;;;5024709;28;20528;-60
2023/08/15 12:05:15;;;;;;;8.60;4.13;;;;;;;;;;5022647;28;20057;-60
2023/08/15 12:07:44;;;;;;;9.50;3.95;;;;;;;;;;5022726;28;20200;-64
2023/08/15 12:10:15;;;;;;;5.78;4.10;;;;;;;;;;5027532;28;20104;-61
2023/08/15 12:12:44;;;;;;;7.22;3.90;;;;;;;;;;5031341;28;20089;-60
2023/08/15 12:15:15;;;;;;;6.88;3.78;;;;;;;;;;5022533;28;20609;-60
2023/08/15 12:17:43;;;;;;;5.53;3.78;;;;;;;;;;5019339;28;20651;-60
2023/08/15 12:20:14;;;;;;;5.57;3.60;;;;;;;;;;5019775;28;20067;-59
2023/08/15 12:22:43;;;;;;;4.68;3.45;;;;;;;;;;5025163;28;20077;-60
2023/08/15 12:25:13;;;;;;;6.03;3.72;;;;;;;;;;5027227;28;20049;-61
2023/08/15 12:27:41;;;;;;;4.45;3.33;;;;;;;;;;5026307;28;20115;-62
2023/08/15 12:30:10;;;;;;;6.07;3.20;;;;;;;;;;5022357;28;20516;-60
2023/08/15 12:32:45;;;;;;;7.38;4.20;;;;;;;;;;5025887;28;20073;-62
2023/08/15 12:35:13;;;;;;;4.70;3.28;;;;;;;;;;5020857;28;20353;-61
2023/08/15 12:37:41;;;;;;;9.32;3.97;;;;;;;;;;5027098;28;20052;-63
2023/08/15 12:40:10;;;;;;;6.97;3.00;;;;;;;;;;5022703;28;20068;-63
2023/08/15 12:42:57;;;;;;;7.20;3.60;;;;;;;;;;5024425;28;20069;-60
2023/08/15 12:45:26;;;;;;;7.57;3.88;;;;;;;;;;5028101;28;20107;-62
2023/08/15 12:47:56;;;;;;;6.78;3.58;;;;;;;;;;5023955;28;20422;-65
2023/08/15 12:50:24;;;;;;;6.22;4.00;;;;;;;;;;5030592;28;20061;-61
2023/08/15 12:52:52;;;;;;;7.75;4.05;;;;;;;;;;5027901;28;20111;-62
2023/08/15 12:55:21;;;;;;;5.95;3.78;;;;;;;;;;5022675;28;20081;-65
2023/08/15 12:57:49;;;;;;;6.05;3.33;;;;;;;;;;5025600;28;20457;-64
2023/08/15 13:00:18;;;;;;;8.85;4.10;;;;;;;;;;5025662;28;20050;-64
2023/08/15 13:02:47;;;;;;;10.02;4.00;;;;;;;;;;5021266;28;20119;-61
2023/08/15 13:05:17;;;;;;;8.82;4.30;;;;;;;;;;5018588;28;20057;-60
2023/08/15 13:07:45;;;;;;;9.75;4.53;;;;;;;;;;5020907;28;20047;-61
2023/08/15 13:10:13;;;;;;;7.90;4.78;;;;;;;;;;5027652;28;20049;-64
2023/08/15 13:12:42;;;;;;;9.35;3.90;;;;;;;;;;5023251;28;20053;-64
2023/08/15 13:15:11;;;;;;;5.57;4.35;;;;;;;;;;5022913;28;20465;-60
2023/08/15 13:17:39;;;;;;;7.22;4.10;;;;;;;;;;5024019;28;20049;-60
2023/08/15 13:20:11;;;;;;;6.18;3.90;;;;;;;;;;5016424;28;20046;-61
2023/08/15 13:22:41;;;;;;;9.05;3.75;;;;;;;;;;5019387;28;20135;-61
2023/08/15 13:25:10;;;;;;;6.95;4.30;;;;;;;;;;5017047;28;20049;-61
2023/08/15 13:27:39;;;;;;;7.72;4.10;;;;;;;;;;5020312;28;20056;-61
2023/08/15 13:30:08;;;;;;;8.55;3.63;;;;;;;;;;5013481;28;20057;-61
2023/08/15 13:32:36;;;;;;;7.82;4.07;;;;;;;;;;5016162;28;20050;-61
2023/08/15 13:35:05;;;;;;;9.73;4.30;;;;;;;;;;5021124;28;20053;-65
2023/08/15 13:37:34;;;;;;;7.90;3.83;;;;;;;;;;5017526;28;20044;-65
2023/08/15 13:40:03;;;;;;;9.50;4.03;;;;;;;;;;5023014;28;20073;-64
2023/08/15 13:42:32;;;;;;;6.30;3.63;;;;;;;;;;5019255;28;21715;-64
2023/08/15 13:45:08;;;;;;;6.10;3.17;;;;;;;;;;5023387;28;20417;-64
2023/08/15 13:47:38;;;;;;;5.15;3.90;;;;;;;;;;5019772;28;20124;-62
2023/08/15 13:50:08;;;;;;;6.05;3.90;;;;;;;;;;5023669;28;20445;-63
2023/08/15 13:52:37;;;;;;;6.35;3.83;;;;;;;;;;5020785;28;20544;-64
2023/08/15 13:55:08;;;;;;;7.20;4.40;;;;;;;;;;5023328;28;20056;-63
2023/08/15 13:57:36;;;;;;;6.35;3.38;;;;;;;;;;5021980;28;20093;-62
2023/08/15 14:00:06;;;;;;;5.13;3.40;;;;;;;;;;5019886;28;20565;-63
2023/08/15 14:02:34;;;;;;;4.95;3.40;;;;;;;;;;5023433;28;20045;-63
2023/08/15 14:05:04;;;;;;;7.18;3.40;;;;;;;;;;5022909;28;20080;-66
2023/08/15 14:07:33;;;;;;;6.10;3.67;;;;;;;;;;5027810;28;20037;-62
2023/08/15 14:10:03;;;;;;;7.10;3.92;;;;;;;;;;5022421;28;20042;-60
2023/08/15 14:12:32;;;;;;;11.50;4.18;;;;;;;;;;5017996;28;20511;-63
2023/08/15 14:15:01;;;;;;;8.02;3.85;;;;;;;;;;5021654;28;20108;-61
2023/08/15 14:17:29;;;;;;;8.57;3.70;;;;;;;;;;5023237;28;20049;-63
2023/08/15 14:19:58;;;;;;;6.63;3.40;;;;;;;;;;5024583;28;20471;-62
2023/08/15 14:22:27;;;;;;;5.65;3.53;;;;;;;;;;5020565;28;20684;-61
2023/08/15 14:24:55;;;;;;;4.68;3.42;;;;;;;;;;5021786;28;20399;-62
2023/08/15 14:27:24;;;;;;;8.90;4.07;;;;;;;;;;5021122;28;20045;-62
2023/08/15 14:29:53;;;;;;;6.18;3.50;;;;;;;;;;5025906;28;20094;-62
2023/08/15 14:32:22;;;;;;;5.70;3.70;;;;;;;;;;5023997;28;20443;-61
2023/08/15 14:34:51;;;;;;;6.93;3.50;;;;;;;;;;5022707;28;20057;-64
2023/08/15 14:37:19;;;;;;;8.02;3.97;;;;;;;;;;5024184;28;20041;-61
2023/08/15 14:39:47;;;;;;;7.53;3.53;;;;;;;;;;5022020;28;20081;-62
2023/08/15 14:42:16;;;;;;;6.82;3.83;;;;;;;;;;5021948;28;20050;-66
2023/08/15 14:44:44;;;;;;;7.13;3.53;;;;;;;;;;5022973;28;20041;-61
2023/08/15 14:47:15;;;;;;;7.32;3.40;;;;;;;;;;5021098;28;20441;-62
2023/08/15 14:49:43;;;;;;;6.47;3.80;;;;;;;;;;5020772;28;20149;-61
2023/08/15 14:52:12;;;;;;;7.20;3.58;;;;;;;;;;5021335;28;20054;-60
2023/08/15 14:54:40;;;;;;;8.00;3.70;;;;;;;;;;5022300;28;20049;-60